x

8452944 - Conimicut Light, Ri (cptr1) Weather Station

6:30pm - Mon 27th Apr 2015 All times are EDT. -4 hours from GMT.

  • Wind
    23mph, 26mph gusts
  • Sea Temp 50°f
  • 空気 Temp 54°f
  • Sea Pressure 1000.8mb
  • 8452944 - Conimicut Light, Ri
  • 8452944 - Conimicut Light, Ri

More Historic Weather Station data

Upgrade to MSW Pro to gain access to the past 30 days of data for over 8000 Wavebouys and Weather Stations around the globe.

Join Pro

Comparision Forecast

View Surf forecast
   
Mon 04/27 6:30pm 23 26 mph 1000.8mb 50f 54f
6:24pm 22 24 mph 1000.7mb 50f 53f
6:00pm 26 32 mph 1000.5mb 49f 54f
5:54pm 22 26 mph 1000.5mb 49f 54f
5:48pm 23 26 mph 1000.4mb 49f 55f
5:42pm 22 29 mph 1000.4mb 49f 54f
5:36pm 25 32 mph 1000.3mb 49f 55f
5:30pm 26 29 mph 1000.2mb 49f 54f
5:24pm 30 33 mph 1000.1mb 49f 54f
5:18pm 28 30 mph 1000mb 49f 55f
5:12pm 22 25 mph 1000mb 49f 55f
5:06pm 24 28 mph 999.9mb 49f 55f
5:00pm 21 29 mph 999.9mb 49f 55f
4:54pm 23 26 mph 999.8mb 49f 54f
4:48pm 24 26 mph 999.7mb 49f 55f
4:42pm 23 29 mph 999.7mb 49f 55f
4:36pm 23 26 mph 999.7mb 49f 55f
4:30pm 24 28 mph 999.7mb 49f 56f
4:24pm 24 26 mph 999.7mb 49f 55f
4:18pm 20 26 mph 999.7mb 49f 55f
4:12pm 24 29 mph 999.7mb 48f 55f
4:06pm 22 29 mph 999.8mb 48f 55f
4:00pm 22 28 mph 999.8mb 48f 55f
3:54pm 23 26 mph 999.7mb 48f 55f
3:48pm 22 24 mph 999.8mb 48f 55f
3:42pm 22 25 mph 999.8mb 48f 55f
3:36pm 23 26 mph 999.7mb 48f 55f
3:30pm 22 28 mph 999.7mb 48f 55f
3:24pm 21 23 mph 999.8mb 48f 55f
3:18pm 21 25 mph 999.9mb 48f 55f
3:12pm 20 24 mph 999.9mb 48f 55f
3:06pm 20 22 mph 999.9mb 48f 55f
3:00pm 16 23 mph 1000mb 48f 55f
2:54pm 22 25 mph 999.9mb 49f 55f
2:48pm 22 26 mph 999.9mb 49f 55f
2:42pm 22 26 mph 1000mb 49f 55f
2:36pm 18 24 mph 1000mb 49f 55f
2:30pm 15 22 mph 1000.1mb 49f 55f
2:24pm 18 23 mph 1000.2mb 49f 55f
2:18pm 14 20 mph 1000.4mb 49f 54f
2:12pm 15 18 mph 1000.6mb 49f 53f
2:06pm 17 22 mph 1000.7mb 49f 52f
2:00pm 23 37 mph 1000.7mb 49f 52f
1:54pm 33 39 mph 1000.5mb 49f 52f
1:48pm 17 21 mph 1000.6mb 50f 54f
1:42pm 20 23 mph 1000.6mb 50f 54f
1:36pm 22 26 mph 1000.6mb 50f 54f
1:30pm 21 24 mph 1000.6mb 50f 54f
1:24pm 20 24 mph 1000.5mb 50f 55f
1:18pm 17 21 mph 1000.6mb 50f 55f
1:12pm 20 22 mph 1000.5mb 50f 55f
1:06pm 14 17 mph 1000.6mb 50f 55f
1:00pm 17 20 mph 1000.7mb 50f 55f
12:54pm 13 15 mph 1000.8mb 50f 54f
12:48pm 15 17 mph 1000.9mb 50f 54f
12:42pm 16 21 mph 1001mb 50f 54f
12:36pm 11 17 mph 1001.1mb 49f 54f
12:30pm 14 18 mph 1001.1mb 49f 54f
12:24pm 10 14 mph 1001.2mb 49f 53f
12:18pm 11 14 mph 1001.2mb 49f 53f
12:12pm 11 16 mph 1001.3mb 49f 54f
12:06pm 16 20 mph 1001.3mb 49f 53f
12:00pm 16 17 mph 1001.2mb 49f 54f
11:54am 13 14 mph 1001.3mb 49f 54f
11:48am 10 14 mph 1001.4mb 49f 54f
11:42am 13 17 mph 1001.5mb 49f 53f
11:36am 14 15 mph 1001.6mb 49f 54f
11:30am 14 15 mph 1001.7mb 49f 52f
11:24am 10 15 mph 1001.8mb 49f 53f
11:18am 14 16 mph 1001.7mb 49f 53f
11:12am 11 16 mph 1001.7mb 49f 53f
11:06am 11 15 mph 1001.8mb 49f 53f
11:00am 14 16 mph 1001.9mb 49f 52f
10:54am 13 16 mph 1001.9mb 49f 52f
10:48am 11 16 mph 1002mb 49f 52f
10:42am 15 16 mph 1002mb 49f 52f
10:36am 9 14 mph 1002.1mb 49f 52f
10:30am 11 14 mph 1002.1mb 49f 51f
10:24am 13 15 mph 1002mb 49f 52f
10:18am 15 17 mph 1002mb 49f 51f
10:12am 14 17 mph 1002mb 49f 51f
10:06am 14 18 mph 1002.1mb 49f 51f
10:00am 14 17 mph 1002.1mb 49f 51f
9:54am 13 14 mph 1002.1mb 49f 51f
9:48am 15 17 mph 1002.1mb 49f 50f
9:42am 15 20 mph 1002.2mb 49f 50f
9:36am 16 20 mph 1002.2mb 49f 50f
9:30am 13 15 mph 1002.2mb 49f 50f
9:24am 14 16 mph 1002.2mb 49f 50f
9:18am 14 16 mph 1002.3mb 49f 50f
9:12am 15 17 mph 1002.3mb 49f 50f
9:06am 16 18 mph 1002.3mb 49f 50f
9:00am 15 18 mph 1002.3mb 49f 50f
8:54am 14 17 mph 1002.4mb 49f 49f
8:48am 15 17 mph 1002.4mb 49f 49f
8:42am 17 20 mph 1002.4mb 49f 49f
8:36am 17 20 mph 1002.4mb 49f 49f
8:30am 16 18 mph 1002.4mb 49f 49f
8:24am 17 21 mph 1002.4mb 49f 49f
8:18am 14 17 mph 1002.4mb 49f 49f
8:12am 17 22 mph 1002.4mb 49f 49f
8:06am 17
mph
1002.4mb 49f 49f
8:00am 17 21 mph 1002.4mb 49f 49f
7:54am 15 18 mph 1002.4mb 49f 49f
7:48am 17 18 mph 1002.4mb 49f 49f
7:42am 16 18 mph 1002.5mb 49f 49f
7:36am 16 18 mph 1002.5mb 49f 49f
7:30am 16 18 mph 1002.5mb 49f 49f
7:24am 15 17 mph 1002.5mb 49f 49f
7:18am 16 17 mph 1002.5mb 49f 49f
7:12am 14 16 mph 1002.4mb 49f 49f
7:06am 14 17 mph 1002.4mb 49f 49f
7:00am 14 17 mph 1002.5mb 49f 49f
6:54am 14 17 mph 1002.4mb 49f 49f
6:48am 15 16 mph 1002.4mb 49f 49f
6:42am 13 14 mph 1002.4mb 49f 49f
6:36am 13 16 mph 1002.4mb 49f 49f
6:30am 13 16 mph 1002.3mb 49f 49f
6:24am 14 16 mph 1002.2mb 49f 49f
6:18am 13 14 mph 1002.2mb 49f 49f
6:12am 10 14 mph 1002.2mb 49f 49f
6:06am 11 14 mph 1002.2mb 49f 49f
6:00am 13 14 mph 1002.2mb 49f 49f
5:54am 10 13 mph 1002.2mb 49f 49f
5:48am 10 11 mph 1002.1mb 49f 49f
5:42am 10 14 mph 1002mb 49f 50f
5:36am 11 14 mph 1002mb 49f 50f
5:30am  -  mph 1002.1mb 49f 49f
5:24am  -  mph 1002mb 48f 50f
5:18am 14 16 mph 1001.9mb 48f 50f
5:12am 14 16 mph 1001.9mb 48f 50f
5:06am 11 14 mph 1001.9mb 48f 50f
5:00am 13 16 mph 1001.9mb 48f 50f
4:54am 13 15 mph 1001.9mb 48f 50f
4:48am 13 14 mph 1001.9mb 48f 50f
4:42am 14 15 mph 1002mb 48f 50f
4:36am 11 14 mph 1002mb 48f 50f
4:30am 9 10 mph 1002.1mb 48f 50f
4:24am 8 10 mph 1002.2mb 48f 50f
4:18am 8 9 mph 1002.3mb 48f 50f
4:12am 8 10 mph 1002.3mb 48f 50f
4:06am 9 10 mph 1002.3mb 48f 50f
4:00am 9 10 mph 1002.4mb 48f 50f
3:54am 8 10 mph 1002.4mb 48f 50f
3:48am 9 10 mph 1002.5mb 48f 50f
3:42am 7 10 mph 1002.5mb 48f 50f
3:36am 7 9 mph 1002.5mb 48f 50f
3:30am 9 10 mph 1002.5mb 48f 50f
3:24am 8 11 mph 1002.5mb 48f 50f
3:18am 10 11 mph 1002.5mb 48f 51f
3:12am 9 10 mph 1002.6mb 48f 50f
3:06am 9 10 mph 1002.6mb 48f 50f
3:00am 9 10 mph 1002.5mb 48f 50f
2:54am 10 11 mph 1002.5mb 48f 51f
2:48am 10 13 mph 1002.5mb 48f 51f
2:42am 9 10 mph 1002.5mb 48f 51f
2:36am 8 9 mph 1002.5mb 48f 51f
2:30am 8 9 mph 1002.5mb 48f 51f
2:24am 9
mph
1002.6mb 48f 51f
2:18am 9 11 mph 1002.6mb 48f 51f
2:12am 8 9 mph 1002.7mb 48f 51f
2:06am 8 9 mph 1002.7mb 48f 51f
2:00am 7 9 mph 1002.7mb 48f 51f
1:54am 8 9 mph 1002.7mb 48f 51f
1:48am 8 9 mph 1002.8mb 48f 51f
1:42am 9 10 mph 1002.8mb 48f 51f
1:36am 8 10 mph 1002.8mb 48f 51f
1:30am 7 8 mph 1002.8mb 48f 51f
1:24am 7 9 mph 1002.9mb 48f 51f
1:18am 8 10 mph 1002.8mb 48f 51f
1:12am 10 13 mph 1002.8mb 48f 51f
1:06am 8 10 mph 1002.8mb 48f 51f
1:00am 8
mph
1002.8mb 48f 51f
12:54am 7 8 mph 1002.8mb 48f 51f
12:48am 7 8 mph 1002.8mb 48f 51f
12:42am 8 9 mph 1002.8mb 48f 51f
12:36am 8 9 mph 1002.8mb 48f 51f
12:30am 8 9 mph 1002.8mb 49f 50f
12:24am 7 8 mph 1002.8mb 49f 50f
12:18am 8 9 mph 1002.8mb 49f 50f
12:12am 7 8 mph 1002.8mb 49f 50f
12:06am 7 8 mph 1002.8mb 49f 50f
12:00am 7
mph
1002.7mb 49f 50f
Sun 04/26 11:54pm 6 7 mph 1002.7mb 49f 50f
11:48pm 5 6 mph 1002.7mb 49f 50f
11:42pm 3 5 mph 1002.7mb 49f 49f
11:36pm 5 6 mph 1002.8mb 49f 50f
11:30pm 3 5 mph 1002.8mb 49f 49f
11:24pm 2
mph
1002.8mb 49f 50f
11:18pm 2 3 mph 1002.8mb 49f 49f
11:12pm 2 5 mph 1002.9mb 49f 50f
11:06pm 3 5 mph 1002.8mb 49f 50f
11:00pm 5
mph
1002.8mb 49f 50f
10:54pm 5
mph
1002.8mb 49f 49f
10:48pm 3
mph
1002.9mb 49f 49f
10:42pm 1
mph
1002.9mb 49f 49f
10:36pm  -  1 mph 1003mb 49f 49f
10:30pm  -  1 mph 1003mb 49f 49f
10:24pm  -  1 mph 1003mb 49f 49f
10:18pm  -  1 mph 1003mb 49f 49f
10:12pm  -  mph 1003.1mb 50f 49f
10:06pm  -  2 mph 1003.1mb 50f 49f
10:00pm 2 5 mph 1003.2mb 50f 49f
9:54pm 5 7 mph 1003.2mb 50f 49f
9:48pm 7 8 mph 1003.2mb 50f 49f
9:42pm 7 8 mph 1003.3mb 50f 49f
9:36pm 7 8 mph 1003.3mb 50f 49f
9:30pm 8
mph
1003.3mb 50f 49f
9:24pm 7 8 mph 1003.3mb 50f 49f
9:18pm 7 8 mph 1003.3mb 50f 49f
9:12pm 7 8 mph 1003.3mb 50f 49f
9:06pm 8 9 mph 1003.3mb 50f 49f
9:00pm 9
mph
1003.3mb 50f 49f
8:54pm 9 10 mph 1003.3mb 50f 49f
8:48pm 10 11 mph 1003.3mb 50f 49f
8:42pm 10 11 mph 1003.3mb 50f 49f
8:36pm 11 13 mph 1003.2mb 50f 50f
8:30pm 11 13 mph 1003.2mb 50f 50f
8:24pm 11 13 mph 1003.3mb 50f 50f
8:18pm 13
mph
1003.2mb 50f 50f
8:12pm 11 13 mph 1003.2mb 50f 50f
8:06pm 11 13 mph 1003.2mb 50f 50f
8:00pm 11 13 mph 1003.3mb 50f 50f
7:54pm 9 13 mph 1003.3mb 50f 50f
7:48pm 13 14 mph 1003.2mb 50f 50f
7:42pm 11 13 mph 1003.2mb 50f 50f
7:36pm 13
mph
1003.2mb 50f 50f
7:30pm 13 14 mph 1003.1mb 50f 50f
7:24pm 13 14 mph 1003.1mb 50f 50f
7:18pm 13 14 mph 1003mb 50f 51f
7:12pm 11 13 mph 1003mb 50f 51f
7:06pm 9 13 mph 1003mb 50f 51f
7:00pm 13 15 mph 1003mb 50f 51f
6:54pm 11 13 mph 1003mb 50f 51f
6:48pm 10
mph
1003mb 50f 51f
6:42pm 8 10 mph 1002.9mb 50f 51f
6:36pm 7 9 mph 1002.9mb 50f 52f
6:30pm  -  2 mph 1002.9mb 50f 53f
6:24pm  -  1 mph 1003mb 50f 54f
6:18pm 2 3 mph 1003mb 50f 54f
6:12pm 2 3 mph 1003mb 50f 54f
6:06pm  -  2 mph 1003mb 50f 55f
6:00pm 2
mph
1003mb 50f 55f
5:54pm 2 3 mph 1003mb 50f 54f
5:48pm 2 3 mph 1003mb 50f 55f
5:42pm 1 2 mph 1002.9mb 50f 55f
5:36pm 2 5 mph 1003mb 50f 54f
5:30pm 2 5 mph 1002.9mb 50f 55f
5:24pm 3 5 mph 1002.9mb 50f 55f
5:18pm 2 3 mph 1003mb 49f 55f
5:12pm 2 6 mph 1003mb 49f 55f
5:06pm 5 6 mph 1003mb 49f 55f
5:00pm 5 6 mph 1003mb 49f 54f
4:54pm 6 7 mph 1003mb 48f 54f
4:48pm 6 9 mph 1003mb 48f 54f
4:42pm 7 8 mph 1003.1mb 48f 54f
4:36pm 8 10 mph 1003.1mb 48f 54f
4:30pm 9 11 mph 1003.1mb 48f 54f
4:24pm 10 13 mph 1003.2mb 48f 54f
4:18pm 10 13 mph 1003.1mb 48f 54f
4:12pm 7 9 mph 1003.2mb 48f 54f
4:06pm 8 11 mph 1003.1mb 48f 55f
4:00pm 9 10 mph 1003.1mb 48f 54f
3:54pm 7 9 mph 1003.1mb 48f 53f
3:48pm 8 10 mph 1003.1mb 47f 53f
3:42pm 9 11 mph 1003.2mb 47f 54f
3:36pm 10 11 mph 1003.2mb 47f 54f
3:30pm 8 10 mph 1003.2mb 47f 53f
3:24pm 8 10 mph 1003.2mb 47f 54f
3:18pm 9
mph
1003.2mb 47f 53f
3:12pm 7 13 mph 1003.2mb 47f 54f
3:06pm 10 13 mph 1003.2mb 47f 53f
3:00pm 10 13 mph 1003.2mb 47f 54f
2:54pm 9 13 mph 1003.3mb 47f 54f
2:48pm 11 13 mph 1003.4mb 47f 54f
2:42pm 8 11 mph 1003.4mb 47f 54f
2:36pm 10 14 mph 1003.4mb 47f 53f
2:30pm 14 15 mph 1003.5mb 48f 53f
2:24pm 11 13 mph 1003.5mb 48f 53f
2:18pm 11
mph
1003.5mb 48f 53f
2:12pm 10 11 mph 1003.5mb 48f 53f
2:06pm 9 13 mph 1003.5mb 48f 53f
2:00pm 10 11 mph 1003.5mb 48f 53f
1:54pm 11
mph
1003.5mb 48f 53f
1:48pm 10 11 mph 1003.4mb 48f 53f
1:42pm 9 13 mph 1003.5mb 48f 53f
1:36pm 11 15 mph 1003.4mb 48f 53f
1:30pm 14 15 mph 1003.4mb 48f 53f
1:24pm 11 14 mph 1003.4mb 49f 53f
1:18pm 10 14 mph 1003.4mb 49f 54f
1:12pm 9 10 mph 1003.4mb 49f 53f
1:06pm 9 11 mph 1003.4mb 49f 53f
1:00pm 7 14 mph 1003.4mb 49f 54f
12:54pm 9 14 mph 1003.4mb 49f 53f
12:48pm 10 11 mph 1003.5mb 49f 53f
12:42pm 9 10 mph 1003.5mb 49f 53f
12:36pm 10 13 mph 1003.5mb 49f 54f
12:30pm 11 14 mph 1003.6mb 49f 53f
12:24pm 9 11 mph 1003.6mb 49f 53f
12:18pm 8 13 mph 1003.7mb 49f 54f
12:12pm 8 11 mph 1003.8mb 49f 54f
12:06pm 5 8 mph 1003.8mb 49f 54f
12:00pm 8 11 mph 1003.9mb 49f 53f
11:54am 9 10 mph 1003.9mb 49f 53f
11:48am 6 8 mph 1003.9mb 49f 53f
11:42am 8 10 mph 1003.9mb 49f 52f
11:36am 10 13 mph 1003.9mb 49f 52f
11:30am 8 10 mph 1003.9mb 49f 52f
11:24am 6 7 mph 1004mb 49f 51f
11:18am 6 9 mph 1004.1mb 49f 52f
11:12am 9 11 mph 1004.1mb 48f 51f
11:06am 8 10 mph 1004mb 48f 51f
11:00am 8 9 mph 1004.1mb 48f 51f
10:54am 9 10 mph 1004.1mb 48f 50f
10:48am 6 8 mph 1004.2mb 48f 50f
10:42am 7 8 mph 1004.2mb 48f 50f
10:36am 6 8 mph 1004.2mb 48f 50f
10:30am 8 9 mph 1004.3mb 48f 50f
10:24am 8
mph
1004.4mb 48f 49f
10:18am 7
mph
1004.4mb 48f 49f
10:12am 7
mph
1004.5mb 48f 49f
10:06am 8 10 mph 1004.4mb 48f 49f
10:00am 8 10 mph 1004.4mb 48f 49f
9:54am 9 10 mph 1004.5mb 48f 49f
9:48am 7 9 mph 1004.5mb 48f 49f
9:42am 9 10 mph 1004.6mb 48f 48f
9:36am 8 11 mph 1004.6mb 48f 48f
9:30am 11 13 mph 1004.6mb 48f 48f
9:24am 9 11 mph 1004.6mb 48f 48f
9:18am 9 10 mph 1004.6mb 48f 48f
9:12am 8 10 mph 1004.7mb 48f 47f
9:06am 9 13 mph 1004.7mb 48f 47f
9:00am 8 10 mph 1004.7mb 48f 47f
8:54am 7 9 mph 1004.8mb 48f 47f
8:48am 6 8 mph 1004.9mb 48f 47f
8:42am 6
mph
1004.9mb 48f 46f
8:36am 5 6 mph 1004.9mb 48f 46f
8:30am 3 5 mph 1004.9mb 48f 46f
8:24am 2
mph
1005mb 48f 46f
8:18am  -  1 mph 1005mb 48f 47f
8:12am  -  1 mph 1005.1mb 48f 46f
8:06am  -  1 mph 1005.2mb 48f 46f
8:00am  -  1 mph 1005.1mb 48f 46f
7:54am 1 2 mph 1005.1mb 48f 45f
7:48am 2 3 mph 1005.1mb 48f 45f
7:42am 2 3 mph 1005.2mb 48f 45f
7:36am 3
mph
1005.2mb 48f 45f
7:30am 3 5 mph 1005.2mb 48f 45f
7:24am 3
mph
1005.2mb 48f 44f
7:18am 2 5 mph 1005.2mb 48f 44f
7:12am 3 5 mph 1005.2mb 48f 44f
7:06am 3 5 mph 1005.2mb 48f 44f
7:00am 5
mph
1005.3mb 48f 44f
6:54am 3 5 mph 1005.3mb 49f 44f
6:48am 5 6 mph 1005.2mb 49f 44f
6:42am 3 5 mph 1005.2mb 49f 44f
6:36am 5 6 mph 1005.2mb 49f 44f
6:30am 5
mph
1005.2mb 49f 44f
6:24am 3 5 mph 1005.2mb 49f 44f
6:18am 3
mph
1005.2mb 49f 44f
6:12am 3 5 mph 1005.2mb 49f 44f
6:06am 3 5 mph 1005.1mb 49f 44f
6:00am 5
mph
1005mb 49f 44f
5:54am 3 5 mph 1005.1mb 49f 44f
5:48am 5
mph
1005mb 49f 44f
5:42am 5 6 mph 1004.9mb 49f 44f
5:36am 5
mph
1004.7mb 49f 44f
5:30am 5 6 mph 1004.6mb 49f 44f
5:24am 3 5 mph 1004.5mb 49f 44f
5:18am 3 5 mph 1004.6mb 49f 44f
5:12am 5
mph
1004.6mb 49f 44f
5:06am 5 6 mph 1004.5mb 49f 44f
5:00am 5 6 mph 1004.5mb 49f 44f
4:54am 6 7 mph 1004.5mb 49f 45f
4:48am 6 7 mph 1004.6mb 49f 45f
4:42am 6 7 mph 1004.6mb 49f 44f
4:36am 6
mph
1004.6mb 49f 44f
4:30am 5 6 mph 1004.7mb 49f 44f
4:24am 6
mph
1004.7mb 49f 44f
4:18am 5 6 mph 1004.8mb 48f 44f
4:12am 6
mph
1004.8mb 48f 44f
4:06am 6
mph
1004.8mb 48f 44f
4:00am 5 6 mph 1004.9mb 48f 44f
3:54am 5 6 mph 1004.8mb 48f 44f
3:48am 6 7 mph 1004.8mb 48f 43f
3:42am 6 7 mph 1004.8mb 48f 43f
3:36am 6 7 mph 1004.8mb 48f 43f
3:30am 6 7 mph 1004.9mb 48f 44f
3:24am 6 7 mph 1005.1mb 48f 44f
3:18am 6
mph
1005mb 48f 44f
3:12am 5 6 mph 1005mb 48f 44f
3:06am 5 6 mph 1005mb 48f 44f
3:00am 6 7 mph 1005mb 48f 44f
2:54am 6 8 mph 1005.1mb 48f 44f
2:48am 7
mph
- 48f 44f
2:42am 6 7 mph - 48f 44f
2:36am 6 7 mph - 48f 45f
2:30am 6 7 mph 1005.3mb 48f 45f
2:24am 6 7 mph 1005.4mb 48f 45f
2:18am 5 6 mph 1005.4mb 48f 45f
2:12am 5 6 mph 1005.5mb 48f 45f
2:06am 5 7 mph 1005.5mb 48f 45f
2:00am 6 7 mph 1005.6mb 48f 45f
1:54am 6 8 mph 1005.7mb 48f 46f
1:48am 7 9 mph 1005.8mb 48f 46f
1:42am 10 11 mph 1005.8mb 48f 46f
1:36am 9 13 mph 1005.8mb 48f 46f
1:30am 9 13 mph 1005.8mb 48f 46f
1:24am 9 13 mph 1005.8mb 48f 46f
1:18am 9 11 mph 1005.9mb 48f 47f
1:12am 7 8 mph 1005.9mb 49f 46f
1:06am 7 8 mph 1005.8mb 49f 46f
1:00am 6 7 mph 1005.8mb 49f 47f
12:54am 6
mph
1005.8mb 49f 47f
12:48am 6 7 mph 1006mb 49f 47f
12:42am 6 7 mph 1006mb 49f 47f
12:36am 6 7 mph 1006mb 49f 47f
12:30am 6 7 mph 1006mb 49f 47f
12:24am 6 7 mph 1006mb 49f 47f
12:18am 5 6 mph 1006mb 49f 47f
12:12am 6
mph
1006.1mb 49f 47f
12:06am 5 6 mph 1006.1mb 49f 47f
12:00am 5 7 mph 1006.1mb 49f 47f
Sat 04/25 11:54pm 6 8 mph 1006.1mb 49f 47f
11:48pm 6 8 mph 1006.2mb 49f 47f
11:42pm 6 9 mph 1006.2mb 49f 47f
11:36pm 9 10 mph 1006.2mb 49f 47f
11:30pm 9 11 mph 1006.1mb 49f 48f
11:24pm 7 10 mph 1006.1mb 49f 48f
11:18pm 8 10 mph 1006.1mb 49f 48f
11:12pm 8 9 mph 1006.1mb 49f 48f
11:06pm 7 10 mph 1006.1mb 49f 48f
11:00pm 7 9 mph 1006.2mb 49f 48f
10:54pm 9
mph
1006mb 49f 48f
10:48pm 8
mph
1006.1mb 49f 49f
10:42pm 8 10 mph 1006mb 49f 49f
10:36pm 8 9 mph 1006.1mb 49f 49f
10:30pm 7 8 mph 1006.1mb 49f 49f
10:24pm 7 9 mph 1006.1mb 49f 49f
10:18pm 6 8 mph 1006mb 49f 49f
10:12pm 6 8 mph 1006mb 49f 49f
10:06pm 6 7 mph 1006.1mb 49f 49f
10:00pm 6 7 mph 1006.1mb 49f 49f
9:54pm 6 8 mph 1006.1mb 49f 49f
9:48pm 8 10 mph 1006mb 49f 49f
9:42pm 9 10 mph 1006.1mb 49f 49f
9:36pm 9 10 mph 1006.1mb 49f 49f
9:30pm 10 13 mph 1006.1mb 49f 50f
9:24pm 10 11 mph 1006.1mb 49f 50f
9:18pm 9 10 mph 1006mb 49f 50f
9:12pm 8 10 mph 1006mb 49f 50f
9:06pm 9 10 mph 1006mb 49f 50f
9:00pm 7 9 mph 1005.8mb 49f 50f
8:54pm 6 8 mph 1005.8mb 49f 50f
8:48pm 8 9 mph 1005.8mb 49f 51f
8:42pm 5 11 mph 1005.7mb 49f 51f
8:36pm 7 10 mph 1005.6mb 49f 51f
8:30pm 9 11 mph 1005.6mb 49f 52f
8:24pm 10 13 mph 1005.5mb 49f 52f
8:18pm 11 13 mph 1005.4mb 49f 52f
8:12pm 10 14 mph 1005.4mb 49f 52f
8:06pm 13 16 mph 1005.3mb 49f 53f
8:00pm 13 15 mph 1005.2mb 49f 53f
7:54pm 13 16 mph 1005.1mb 49f 53f
7:48pm 13 14 mph 1005.1mb 49f 53f
7:42pm 14 18 mph 1005mb 49f 53f
7:36pm 15 17 mph 1004.9mb 49f 53f
7:30pm 14 17 mph 1005mb 49f 53f
7:24pm 15 21 mph 1004.9mb 49f 53f
7:18pm 17 20 mph 1004.9mb 49f 53f
7:12pm 14 18 mph 1004.9mb 49f 53f
7:06pm 11 15 mph 1004.9mb 49f 53f
7:00pm 13 16 mph 1004.9mb 49f 53f
6:54pm 14 17 mph 1004.8mb 49f 53f
6:48pm 15 18 mph 1004.7mb 49f 54f
6:42pm 16 17 mph 1004.6mb 49f 53f
6:36pm 14 16 mph 1004.6mb 49f 53f
6:30pm 17 20 mph 1004.6mb 49f 54f
6:24pm 15 16 mph 1004.6mb 49f 53f
6:18pm 15 17 mph 1004.6mb 49f 54f
6:12pm 14 15 mph 1004.5mb 49f 54f
6:06pm 11 13 mph 1004.5mb 49f 54f
6:00pm 15 17 mph 1004.4mb 49f 54f
5:54pm 14 15 mph 1004.4mb 49f 54f
5:48pm 15 16 mph 1004.4mb 49f 54f
5:42pm 9 15 mph 1004.5mb 49f 55f
5:36pm 11 16 mph 1004.4mb 49f 55f
5:30pm 13 16 mph 1004.4mb 49f 54f
5:24pm 15 17 mph 1004.3mb 49f 54f
5:18pm 10 13 mph 1004.5mb 49f 54f
5:12pm 14 17 mph 1004.4mb 49f 55f
5:06pm 18 20 mph 1004.3mb 49f 54f
5:00pm 9 17 mph 1004.4mb 48f 55f
4:54pm 14 16 mph 1004.3mb 48f 55f
4:48pm 15 18 mph 1004.2mb 48f 56f
4:42pm 14 16 mph 1004.3mb 48f 55f
4:36pm 13 16 mph 1004.3mb 48f 55f
4:30pm 8 10 mph 1004.3mb 48f 55f
4:24pm 11 18 mph 1004.3mb 48f 55f
4:18pm 17 23 mph 1004.3mb 48f 54f
4:12pm 16 20 mph 1004.2mb 48f 54f
4:06pm 14 21 mph 1004.3mb 48f 55f
4:00pm 13 17 mph 1004.5mb 48f 54f
3:54pm 14 21 mph 1004.5mb 48f 54f
3:48pm 10 13 mph 1004.7mb 48f 54f
3:42pm 8 13 mph 1004.7mb 48f 54f
3:36pm 8 14 mph 1004.7mb 48f 55f
3:30pm 13 18 mph 1004.8mb 48f 53f
3:24pm 14 15 mph 1004.8mb 48f 53f
3:18pm 15 17 mph 1004.9mb 48f 53f
3:12pm 11 16 mph 1004.9mb 47f 53f
3:06pm 16 20 mph 1004.9mb 47f 53f
3:00pm 16 20 mph 1005mb 47f 53f
2:54pm 10 15 mph 1005mb 47f 53f
2:48pm 15 18 mph 1005mb 47f 52f
2:42pm 7 17 mph 1005.1mb 47f 53f
2:36pm 16 22 mph 1005.2mb 47f 53f
2:30pm 18 23 mph 1005.2mb 47f 52f
2:24pm 16 22 mph 1005.3mb 47f 52f
2:18pm 14 21 mph 1005.2mb 47f 53f
2:12pm 14 21 mph 1005.3mb 47f 52f
2:06pm 11 22 mph 1005.4mb 47f 52f
2:00pm 20 22 mph 1005.5mb 47f 52f
1:54pm 9 16 mph 1005.7mb 47f 51f
1:48pm 18 24 mph 1005.7mb 47f 51f
1:42pm 15 22 mph 1005.8mb 47f 51f
1:36pm 9 14 mph 1005.9mb 47f 51f
1:30pm 13 17 mph 1006mb 47f 51f
1:24pm 13 16 mph 1005.9mb 47f 51f
1:18pm 8 17 mph 1006.1mb 47f 50f
1:12pm 16 22 mph 1006mb 47f 51f
1:06pm 17 24 mph 1006.1mb 47f 50f
1:00pm 15 21 mph 1006.3mb 47f 50f
12:54pm 9 11 mph 1006.4mb 47f 50f
12:48pm 13 16 mph 1006.5mb 47f 50f
12:42pm 14 16 mph 1006.5mb 47f 50f
12:36pm 8 14 mph 1006.6mb 47f 49f
12:30pm 8 20 mph 1006.7mb 47f 49f
12:24pm 14 16 mph 1006.6mb 47f 49f
12:18pm 10 14 mph 1006.8mb 47f 49f
12:12pm 6 8 mph 1006.9mb 47f 48f
12:06pm 5 10 mph 1007mb 47f 48f
12:00pm 9 11 mph 1007.2mb 47f 49f
11:54am 5 8 mph 1007.3mb 47f 49f
11:48am 5 7 mph 1007.3mb 47f 47f
11:42am 7 10 mph 1007.3mb 47f 47f
11:36am 11 15 mph 1007.2mb 47f 47f
11:30am 8 10 mph 1007.3mb 47f 46f
11:24am 9 13 mph 1007.3mb 47f 46f
11:18am 8 10 mph 1007.6mb 47f 46f
11:12am 5 14 mph 1007.6mb 46f 45f
11:06am 11 15 mph 1007.6mb 46f 45f
11:00am 8 13 mph 1007.7mb 46f 45f
10:54am 11 15 mph 1007.7mb 46f 44f
10:48am 8 10 mph 1007.8mb 46f 44f
10:42am 8 10 mph 1007.8mb 46f 44f
10:36am 7 11 mph 1007.9mb 46f 44f
10:30am 9 14 mph 1007.9mb 46f 44f
10:24am 9 15 mph 1008mb 46f 43f
10:18am 13 14 mph 1008.1mb 46f 43f
10:12am 11 15 mph 1008.3mb 46f 42f
10:06am 13 15 mph 1008.4mb 46f 42f
10:00am 10 15 mph 1008.4mb 46f 42f
9:54am 14 16 mph 1008.5mb 46f 42f
9:48am 15 16 mph 1008.4mb 46f 41f
9:42am 15 18 mph 1008.4mb 46f 41f
9:36am 14 18 mph 1008.4mb 46f 40f
9:30am 14 18 mph 1008.4mb 46f 40f
9:24am 14 21 mph 1008.5mb 46f 40f
9:18am 14 20 mph 1008.5mb 46f 40f
9:12am 17 22 mph 1008.6mb 46f 40f
9:06am 15 18 mph 1008.8mb 46f 40f
9:00am 17 20 mph 1008.8mb 46f 39f
8:54am 17 21 mph 1008.9mb 46f 39f
8:48am 20 24 mph 1009.1mb 46f 39f
8:42am 16 20 mph 1009.2mb 46f 39f
8:36am 15 21 mph 1009.3mb 46f 39f
8:30am 14 16 mph 1009.2mb 46f 38f
8:24am 13 17 mph 1009.3mb 46f 38f
8:18am 14 16 mph 1009.5mb 46f 38f
8:12am 14 21 mph 1009.5mb 46f 38f
8:06am 15 18 mph 1009.6mb 46f 37f
8:00am 15 18 mph 1009.7mb 46f 37f
7:54am 15 17 mph 1009.6mb 46f 37f
7:48am 16 20 mph 1009.7mb 46f 37f
7:42am 15 18 mph 1009.8mb 46f 37f
7:36am 15 17 mph 1009.8mb 46f 37f
7:30am 14 17 mph 1009.8mb 46f 37f
7:24am 14 16 mph 1009.7mb 46f 36f
7:18am 14 17 mph 1009.8mb 46f 36f
7:12am 13 16 mph 1009.9mb 46f 36f
7:06am 16 18 mph 1009.9mb 46f 36f
7:00am 14 17 mph 1009.9mb 46f 36f
6:54am 15 17 mph 1009.9mb 46f 36f
6:48am 14 16 mph 1009.9mb 46f 35f
6:42am 14 16 mph 1009.9mb 46f 35f
6:36am 11 15 mph 1009.9mb 46f 35f
6:30am 13 16 mph 1009.7mb 46f 35f
6:24am 14 16 mph 1009.7mb 46f 35f
6:18am 14 18 mph 1009.7mb 46f 35f
6:12am 14 17 mph 1009.6mb 46f 35f
6:06am 14 18 mph 1009.5mb 46f 35f
6:00am 15 20 mph 1009.6mb 46f 35f
5:54am 16 20 mph 1009.5mb 47f 35f
5:48am 15 17 mph 1009.5mb 47f 35f
5:42am 14 17 mph 1009.4mb 47f 35f
5:36am 15 17 mph 1009.3mb 47f 35f
5:30am 14 16 mph 1009.2mb 47f 35f
5:24am 15 17 mph 1009.1mb 47f 35f
5:18am 14 16 mph 1009.1mb 47f 35f
5:12am 14 17 mph 1009mb 47f 35f
5:06am 15 17 mph 1009mb 47f 35f
5:00am 14 16 mph 1009mb 47f 35f
4:54am 14 15 mph 1009mb 47f 35f
4:48am 11 14 mph 1008.8mb 47f 35f
4:42am 13 15 mph 1008.8mb 47f 35f
4:36am 11 15 mph 1008.8mb 47f 35f
4:30am 11 14 mph 1008.7mb 47f 35f
4:24am 10 13 mph 1008.9mb 47f 35f
4:18am 11 14 mph 1008.9mb 47f 36f
4:12am 10 14 mph 1008.9mb 47f 36f
4:06am 11 13 mph 1009mb 47f 36f
4:00am 9 11 mph 1008.9mb 47f 36f
3:54am 10 13 mph 1008.9mb 47f 36f
3:48am 11 14 mph 1009mb 47f 36f
3:42am 10 14 mph 1009mb 47f 36f
3:36am 11 13 mph 1009.1mb 47f 36f
3:30am 10 14 mph 1009mb 47f 36f
3:24am 13 16 mph 1009.1mb 47f 36f
3:18am 11 14 mph 1009.1mb 47f 36f
3:12am 11 15 mph 1009.1mb 47f 36f
3:06am 11 15 mph 1009.1mb 47f 37f
3:00am 13 14 mph 1009.2mb 47f 37f
2:54am 11 13 mph 1009.2mb 47f 37f
2:48am 11 14 mph 1009.1mb 47f 37f
2:42am 11 14 mph 1009.1mb 47f 37f
2:36am 11 15 mph 1009mb 47f 38f
2:30am 14 16 mph 1009mb 47f 38f
2:24am 10 15 mph 1009mb 47f 38f
2:18am 11 17 mph 1009.1mb - 38f
2:12am 15 16 mph 1009mb - 38f
2:06am 13 15 mph 1009mb - 38f
2:00am 13 15 mph 1009mb 47f 38f
1:54am 14 15 mph 1009mb 47f 38f
1:48am 15 16 mph 1009mb 47f 38f
1:42am 14 17 mph 1009.1mb 47f 38f
1:36am 14 16 mph 1009.1mb 47f 39f
1:30am 14 20 mph 1009.1mb 47f 39f
1:24am 16 20 mph 1009mb 47f 39f
1:18am 17 20 mph 1009.1mb 48f 39f
1:12am 16 20 mph 1009.2mb 48f 39f
1:06am 17 22 mph 1009.2mb 48f 39f
1:00am 16 18 mph 1009.3mb 48f 39f
12:54am 15 20 mph 1009.4mb 48f 39f
12:48am 17 21 mph 1009.3mb 48f 39f
12:42am 16 20 mph 1009.3mb 48f 39f
12:36am 16 20 mph 1009.4mb 48f 39f
12:30am 16 18 mph 1009.3mb 48f 40f
12:24am 15 20 mph 1009.4mb 48f 40f
12:18am 17 20 mph 1009.4mb 48f 40f
12:12am 16 20 mph 1009.5mb 48f 40f
12:06am 17 20 mph 1009.5mb 48f 40f
12:00am 17 22 mph 1009.5mb 48f 40f
Fri 04/24 11:54pm 18 21 mph 1009.4mb 48f 40f
11:48pm 16 21 mph 1009.4mb 48f 40f
11:42pm 15 20 mph 1009.5mb 48f 40f
11:36pm 16 23 mph 1009.3mb 48f 40f
11:30pm 17 21 mph 1009.2mb 48f 40f
11:24pm 17 22 mph 1009.2mb 48f 40f
11:18pm 20 23 mph 1009.3mb 48f 40f
11:12pm 18 22 mph 1009.4mb 48f 40f
11:06pm 21 24 mph 1009.3mb 48f 40f
11:00pm 21 25 mph 1009.4mb 48f 41f
10:54pm 20 23 mph 1009.5mb 48f 41f
10:48pm 20 24 mph 1009.6mb 48f 41f
10:42pm 21 24 mph 1009.7mb 48f 41f
10:36pm 18 24 mph 1009.6mb 48f 41f
10:30pm 21 25 mph 1009.6mb 48f 41f
10:24pm 16 20 mph 1009.6mb 48f 41f
10:18pm 18 21 mph 1009.6mb 48f 42f
10:12pm 18 23 mph 1009.5mb 48f 41f
10:06pm 20 24 mph 1009.6mb 48f 42f
10:00pm 20 22 mph 1009.5mb 48f 42f
9:54pm 20 25 mph 1009.5mb 48f 42f
9:48pm 17 21 mph 1009.4mb 48f 42f
9:42pm 22 24 mph 1009.4mb 48f 42f
9:36pm 21 24 mph 1009.3mb 48f 42f
9:30pm 18 24 mph 1009.3mb 48f 42f
9:24pm 21 24 mph 1009.2mb 48f 42f
9:18pm 17 22 mph 1009.2mb 48f 42f
9:12pm 20 25 mph 1009.1mb 49f 42f
9:06pm 20 25 mph 1009.1mb 49f 42f
9:00pm 22 28 mph 1009.1mb 49f 43f
8:54pm 25 29 mph 1008.9mb 49f 43f
8:48pm 25 30 mph 1008.8mb 49f 43f
8:42pm 24 29 mph 1008.8mb 49f 43f
8:36pm 22 29 mph 1008.9mb 49f 43f
8:30pm 21 24 mph 1008.8mb 49f 43f
8:24pm 20 24 mph 1008.7mb 49f 43f
8:18pm 20 24 mph 1008.7mb 49f 43f
8:12pm 20 24 mph 1008.6mb 49f 43f
8:06pm 20 23 mph 1008.6mb 49f 43f
8:00pm 21 26 mph 1008.5mb 49f 44f
7:54pm 25 29 mph 1008.4mb 49f 44f
7:48pm 24 30 mph 1008.3mb 49f 44f
7:42pm 22 28 mph 1008.3mb 49f 44f
7:36pm 25 29 mph 1008.2mb 49f 44f
7:30pm 25 31 mph 1008mb 49f 44f
7:24pm 22 25 mph 1008mb 49f 44f
7:18pm 21 26 mph 1008.1mb 49f 44f
7:12pm 24 28 mph 1007.9mb 49f 44f
7:06pm 22 28 mph 1007.8mb 49f 44f
7:00pm 22 31 mph 1007.8mb 49f 45f
6:54pm 24 29 mph 1007.6mb 49f 44f
6:48pm 23 28 mph 1007.6mb 49f 45f
6:42pm 24 29 mph 1007.5mb 49f 45f
6:36pm 28 31 mph 1007.4mb 49f 45f
6:30pm 24 28 mph 1007.4mb 49f 45f
6:24pm 22 29 mph 1007.3mb 49f 45f
6:18pm 28 31 mph 1007.4mb 49f 45f
6:12pm 23 30 mph 1007.4mb 49f 45f
6:06pm 29 31 mph 1007.1mb 49f 45f
6:00pm 24 28 mph 1007.1mb 49f 46f
5:54pm 23 26 mph 1006.9mb 49f 46f
5:48pm 21 26 mph 1007.1mb 49f 46f
5:42pm 21 26 mph 1007.2mb 49f 46f
5:36pm 21 23 mph 1006.8mb 49f 46f
5:30pm 18 25 mph 1006.8mb 49f 46f
5:24pm 20 24 mph 1007mb 49f 46f
5:18pm 22 25 mph 1006.8mb 49f 46f
5:12pm 17 21 mph 1006.6mb 49f 47f
5:06pm 18 23 mph 1006.6mb 49f 46f
5:00pm 20 22 mph 1006.6mb 49f 46f
4:54pm 17 22 mph 1006.6mb 49f 46f
4:48pm 18 22 mph 1006.6mb 49f 46f
4:42pm 14 21 mph 1006.6mb 49f 46f
4:36pm 18 22 mph 1006.4mb 49f 46f
4:30pm 23 26 mph 1006.4mb 49f 46f
4:24pm 21 24 mph 1006.3mb 49f 46f
4:18pm 17 25 mph 1006.3mb 49f 46f
4:12pm 16 22 mph 1006.3mb 49f 46f
4:06pm 17 24 mph 1006.2mb 49f 46f
4:00pm 16 23 mph 1006.1mb 49f 46f
3:54pm 14 20 mph 1006.2mb 49f 46f
3:48pm 14 18 mph 1006.1mb 49f 47f
3:42pm 16 18 mph 1006mb 49f 47f
3:36pm 13 24 mph 1006.2mb 49f 47f
3:30pm 20 23 mph 1006mb 49f 46f
3:24pm 15 23 mph 1006mb 49f 46f
3:18pm 14 21 mph 1006mb 49f 46f
3:12pm 14 22 mph 1005.9mb 49f 46f
3:06pm 18 23 mph 1005.9mb 49f 46f
3:00pm 21 24 mph 1005.9mb 49f 46f
2:54pm 17 25 mph 1005.9mb 49f 46f
2:48pm 14 21 mph 1006.1mb 48f 46f
2:42pm 14 18 mph 1006.1mb 48f 46f
2:36pm 15 18 mph 1006.1mb 48f 46f
2:30pm 20 22 mph 1006.2mb 48f 46f
2:24pm 15 23 mph 1006.2mb 48f 46f
2:18pm 15 17 mph 1006.2mb 48f 46f
2:12pm 13 25 mph 1006.3mb 48f 46f
2:06pm 17 20 mph 1006.3mb 48f 46f
2:00pm 18 22 mph 1006.4mb 48f 45f
1:54pm 15 24 mph 1006.4mb 48f 45f
1:48pm 18 24 mph 1006.4mb 48f 45f
1:42pm 16 22 mph 1006.5mb 48f 45f
1:36pm 14 21 mph 1006.5mb 48f 45f
1:30pm 18 21 mph 1006.4mb 48f 45f
1:24pm 16 21 mph 1006.5mb 48f 45f
1:18pm 13 17 mph 1006.7mb 48f 45f
1:12pm 16 22 mph 1006.6mb 48f 45f
1:06pm 16 21 mph 1006.6mb 48f 45f
1:00pm 13 22 mph 1006.7mb 47f 44f
12:54pm 13 18 mph 1006.7mb 47f 44f
12:48pm 14 20 mph 1006.8mb 47f 44f
12:42pm 8 21 mph 1006.7mb 47f 44f
12:36pm 20 24 mph 1006.7mb 47f 44f
12:30pm 15 23 mph 1006.7mb 47f 44f
12:24pm 20 24 mph 1006.8mb 47f 44f
12:18pm 22 25 mph 1006.8mb 47f 44f
12:12pm 20 26 mph 1006.8mb 47f 43f
12:06pm 17 22 mph 1007mb 47f 43f
12:00pm 9 16 mph 1007mb 47f 43f
11:54am 18 22 mph 1007.1mb 47f 43f
11:48am 18 21 mph 1006.9mb 47f 43f
11:42am 16 21 mph 1007.1mb 47f 43f
11:36am 15 17 mph 1007.1mb 47f 43f
11:30am 11 22 mph 1007.1mb 47f 43f
11:24am 17 24 mph 1007.1mb 47f 43f
11:18am 17 23 mph 1007.1mb 47f 42f
11:12am 11 21 mph 1007.2mb 47f 43f
11:06am 18 22 mph 1007.2mb 47f 43f
11:00am 15 22 mph 1007.3mb 47f 43f
10:54am 17 23 mph 1007.2mb 47f 42f
10:48am 23 25 mph 1007.3mb 47f 42f
10:42am 22 28 mph 1007.4mb 47f 42f
10:36am 21 25 mph 1007.3mb 48f 42f
10:30am 18 23 mph 1007.3mb 48f 42f
10:24am 18 22 mph 1007.3mb 48f 42f
10:18am 21 24 mph 1007.4mb 48f 41f
10:12am 18 24 mph 1007.5mb 48f 41f
10:06am 18 24 mph 1007.4mb 48f 41f
10:00am 22 26 mph 1007.4mb 48f 41f
9:54am 21 25 mph 1007.4mb 48f 41f
9:48am 21 26 mph 1007.5mb 48f 41f
9:42am 22 25 mph 1007.5mb 48f 40f
9:36am 23 26 mph 1007.6mb 48f 40f
9:30am 20 25 mph 1007.6mb 48f 40f
9:24am 24 28 mph 1007.6mb 48f 40f
9:18am 22 26 mph 1007.6mb 48f 40f
9:12am 20 23 mph 1007.6mb 48f 39f
9:06am 22 28 mph 1007.6mb 48f 40f
9:00am 25 30 mph 1007.4mb 48f 39f
8:54am 22 28 mph 1007.5mb 48f 39f
8:48am 23 28 mph 1007.5mb 48f 39f
8:42am 23 26 mph 1007.5mb 48f 39f
8:36am 22 30 mph 1007.6mb 48f 39f
8:30am 22 25 mph 1007.6mb 48f 39f
8:24am 23 30 mph 1007.6mb 48f 39f
8:18am 23 26 mph 1007.6mb 48f 39f
8:12am 25 29 mph 1007.6mb 48f 39f
8:06am 24 26 mph 1007.6mb 48f 38f
8:00am 23 30 mph 1007.5mb 48f 39f
7:54am 23 30 mph 1007.5mb 48f 39f
7:48am 23 31 mph 1007.5mb 48f 39f
7:42am 22 25 mph 1007.5mb 48f 39f
7:36am 22 25 mph 1007.5mb 48f 39f
7:30am 21 25 mph 1007.5mb 48f 39f
7:24am 20 23 mph 1007.5mb 48f 39f
7:18am 18 22 mph 1007.5mb 48f 39f
7:12am 21 22 mph 1007.4mb 48f 38f
7:06am 18 24 mph 1007.5mb 48f 38f
7:00am 20 25 mph 1007.4mb 48f 38f
6:54am 21 25 mph 1007.3mb 48f 38f
6:48am 21 24 mph 1007.3mb 48f 38f
6:42am 22 25 mph 1007.3mb 48f 38f
6:36am 21 23 mph 1007.2mb 48f 38f
6:30am 18 21 mph 1007.2mb 48f 38f
6:24am 17 21 mph 1007.2mb 48f 38f
6:18am 17 20 mph 1007.2mb 48f 38f
6:12am 17 23 mph 1007.2mb 48f 38f
6:06am 18 23 mph 1007.2mb 48f 38f
6:00am 18 23 mph 1007.1mb 48f 38f
5:54am 18 21 mph 1007mb 48f 38f
5:48am 20 22 mph - 48f 38f
5:42am 18 22 mph - 48f 38f
5:36am 21 23 mph - 49f 38f
5:30am 16 22 mph - - -
5:24am 18 23 mph - - -
5:18am 17 22 mph - 49f 38f
5:12am 18 23 mph - 49f 38f
5:06am 17 21 mph - 49f 38f
5:00am 16 21 mph 1006.8mb 49f 38f
4:54am 16 22 mph 1006.7mb 49f 38f
4:48am 17 21 mph 1006.7mb 49f 39f
4:42am 16 22 mph 1006.7mb 49f 38f
4:36am 16 20 mph 1006.7mb 49f 38f
4:30am 15 22 mph 1006.7mb 49f 38f
4:24am 18 21 mph 1006.7mb 49f 38f
4:18am 15 18 mph 1006.6mb 49f 38f
4:12am 17 21 mph 1006.6mb 49f 38f
4:06am 16 20 mph 1006.6mb 49f 38f
4:00am 16 20 mph 1006.7mb 49f 38f
3:54am 14 20 mph 1006.7mb 49f 38f
3:48am 18 22 mph 1006.7mb 49f 38f
3:42am 16 22 mph 1006.6mb 49f 38f
3:36am 17 22 mph 1006.7mb 49f 38f
3:30am 21 24 mph 1006.6mb 49f 38f
3:24am 17 20 mph 1006.6mb 49f 38f
3:18am 17 20 mph 1006.4mb 49f 38f
3:12am 17 21 mph 1006.5mb 49f 38f
3:06am 15 17 mph 1006.6mb 49f 38f
3:00am 15 22 mph 1006.6mb 49f 38f
2:54am 14 17 mph 1006.5mb 49f 38f
2:48am 15 17 mph 1006.4mb 49f 38f
2:42am 15 20 mph 1006.4mb 49f 38f
2:36am 16 20 mph 1006.4mb 49f 38f
2:30am 14 20 mph 1006.4mb 49f 38f
2:24am 17 22 mph 1006.4mb 49f 38f
2:18am 18 23 mph 1006.5mb 49f 39f
2:12am 20 24 mph 1006.4mb 49f 38f
2:06am 20 24 mph 1006.4mb 49f 39f
2:00am 17 22 mph 1006.4mb 49f 39f
1:54am 17 24 mph 1006.5mb 49f 39f
1:48am 18 25 mph 1006.4mb 49f 39f
1:42am 14 18 mph 1006.4mb 49f 39f
1:36am 14 18 mph 1006.4mb 49f 39f
1:30am 15 18 mph 1006.5mb 49f 39f
1:24am 14 16 mph 1006.6mb 49f 39f
1:18am 11 15 mph 1006.7mb 49f 39f
1:12am 11 16 mph 1006.7mb 49f 39f
1:06am 13 15 mph 1006.7mb 49f 39f
1:00am 14 16 mph 1006.7mb 49f 39f
12:54am 13 16 mph 1006.7mb 49f 39f
12:48am 11 16 mph 1006.7mb 49f 39f
12:42am 16 18 mph 1006.7mb 49f 39f
12:36am 14 22 mph 1006.7mb 49f 39f
12:30am 16 20 mph 1006.7mb 49f 39f
12:24am 17 21 mph 1006.8mb 49f 39f
12:18am 17 22 mph 1006.7mb 49f 39f
12:12am 18 22 mph 1006.7mb 49f 39f
12:06am 20 23 mph 1006.7mb 49f 39f
12:00am 21 25 mph 1006.6mb 49f 40f
Thu 04/23 11:54pm 20 22 mph 1006.6mb 49f 40f
11:48pm 17 21 mph 1006.7mb 49f 40f
11:42pm 20 23 mph 1006.6mb 49f 40f
11:36pm 20 26 mph 1006.7mb 49f 40f
11:30pm 23 28 mph 1006.6mb 49f 40f